Flight Track Log - Related Links

Times and Time Zones

All times are in EST time to prevent confusion due to time zone crossing. See the AWE1925 flight status page for this flight to view local times or setup timezone preferences in your user account.

Time Position Orientation Groundspeed Altitude Reporting Facility
EST Latitude Longitude Course Direction KTS MPH feet Rate Location/Type
Tue 06:27:36 AM 29.9936 -95.3253 90° East 170 196 700  Level Houston Center
Tue 06:27:42 AM 29.9933 -95.3206 94° East 166 191 1,000 1,791 Climbing Houston Center
Tue 06:28:43 AM 29.9925 -95.2675 91° East 198 228 2,700 1,670 Climbing Houston Center
Tue 06:29:37 AM 29.9947 -95.2111 87° East 195 224 4,200 1,800 Climbing Houston Center
Tue 06:29:43 AM 29.9939 -95.1900 93° East 269 310 4,500 2,600 Climbing Houston Center
Tue 06:30:00 AM 29.9834 -94.8894 90° East  Level FlightAware Approximate
Tue 06:30:37 AM 29.9953 -95.1178 89° East 279 321 6,800  Level Houston Center
Tue 06:30:44 AM 29.9936 -95.0983 96° East 286 329 7,400 2,361 Climbing Houston Center
Tue 06:31:00 AM 29.9834 -94.7414 90° East  Level FlightAware Approximate
Tue 06:31:38 AM 29.9956 -95.0242 88° East 288 331 9,200  Level Houston Center
Tue 06:31:44 AM 29.9947 -94.9969 92° East 308 354 9,900 1,300 Climbing Houston Center
Tue 06:32:00 AM 29.9833 -94.5934 90° East  Level FlightAware Approximate
Tue 06:32:38 AM 29.9961 -94.9178 89° East 320 368 10,500  Level Houston Center
Tue 06:32:45 AM 29.9944 -94.8836 93° East 385 443 10,700 700 Climbing Houston Center
Tue 06:33:38 AM 29.9967 -94.7642 89° East 403 464 11,200 1,381 Climbing Houston Center
Tue 06:34:38 AM 29.9981 -94.6181 89° East 444 511 13,300 2,050 Climbing Houston Center
Tue 06:35:38 AM 29.9972 -94.4681 90° East 462 532 15,300 1,736 Climbing Houston Center
Tue 06:36:39 AM 29.9978 -94.3133 90° East 480 552 16,800 1,587 Climbing Houston Center
Tue 06:37:39 AM 30.0161 -94.1569 82° East 490 564 18,500 1,650 Climbing Houston Center
Tue 06:38:39 AM 30.0353 -94.0000 82° East 494 568 20,100 1,450 Climbing Houston Center
Tue 06:39:39 AM 30.0556 -93.8394 82° East 504 580 21,400 1,400 Climbing Houston Center
Tue 06:40:39 AM 30.0747 -93.6775 82° East 513 590 22,900 1,289 Climbing Houston Center
Tue 06:41:40 AM 30.0942 -93.5153 82° East 515 593 24,000 1,190 Climbing Houston Center
Tue 06:42:40 AM 30.1133 -93.3528 82° East 519 597 25,300 1,400 Climbing Houston Center
Tue 06:43:40 AM 30.1319 -93.1889 82° East 519 597 26,800 1,300 Climbing Houston Center
Tue 06:44:40 AM 30.1558 -93.0247 80° East 519 597 27,900 1,000 Climbing Houston Center
Tue 06:45:40 AM 30.1886 -92.8600 77° East 525 604 28,800 843 Climbing Houston Center
Tue 06:46:41 AM 30.2217 -92.6917 77° East 535 616 29,600 744 Climbing Houston Center
Tue 06:47:41 AM 30.2558 -92.5200 77° East 545 627 30,300 550 Climbing Houston Center
Tue 06:48:41 AM 30.2869 -92.3444 78° East 552 635 30,700 600 Climbing Houston Center
Tue 06:49:41 AM 30.3253 -92.1619 76° East 577 664 31,500 843 Climbing Houston Center
Tue 06:50:42 AM 30.3586 -91.9833 78° East 577 664 32,400 893 Climbing Houston Center
Tue 06:51:42 AM 30.3906 -91.8064 78° East 570 656 33,300 650 Climbing Houston Center
Tue 06:52:42 AM 30.4306 -91.5889 78° East 575 662 33,700 550 Climbing Houston Center
Tue 06:53:42 AM 30.4639 -91.4219 77° East 583 671 34,400 545 Climbing Houston Center
Tue 06:54:43 AM 30.5319 -91.2511 65° Northeast 584 672 34,800 446 Climbing Houston Center
Tue 06:55:43 AM 30.6308 -91.1064 52° Northeast 572 658 35,300 550 Climbing Houston Center
Tue 06:56:43 AM 30.7414 -90.9675 47° Northeast 577 664 35,900 600 Climbing Houston Center
Tue 06:57:43 AM 30.8478 -90.8308 48° Northeast 574 661 36,500 446 Climbing Houston Center
Tue 06:58:44 AM 30.9536 -90.6942 48° Northeast 568 654 36,800 248 Climbing Houston Center
Tue 06:59:44 AM 31.0631 -90.5517 48° Northeast 568 654 37,000 100 Climbing Houston Center
Tue 07:00:44 AM 31.1642 -90.4194 48° Northeast 567 652 37,000  Level Houston Center
Tue 07:01:44 AM 31.2703 -90.2825 48° Northeast 567 652 37,000  Level Houston Center
Tue 07:02:45 AM 31.3747 -90.1447 48° Northeast 567 652 37,000  Level Houston Center
Tue 07:03:45 AM 31.4800 -90.0072 48° Northeast 566 651 37,000  Level Houston Center
Tue 07:04:45 AM 31.5853 -89.8669 49° Northeast 569 655 37,000  Level Houston Center
Tue 07:05:46 AM 31.6919 -89.7272 48° Northeast 572 658 37,000  Level Houston Center
Tue 07:06:46 AM 31.7975 -89.5858 49° Northeast 572 658 37,000  Level Houston Center
Tue 07:07:46 AM 31.8956 -89.4550 49° Northeast 572 658 37,000  Level Houston Center
Tue 07:08:47 AM 32.0008 -89.3150 48° Northeast 572 658 37,000  Level Houston Center
Tue 07:09:47 AM 32.1056 -89.1722 49° Northeast 572 658 37,000  Level Houston Center
Tue 07:10:47 AM 32.2128 -89.0278 49° Northeast 576 663 37,000  Level Houston Center
Tue 07:11:47 AM 32.3186 -88.8833 49° Northeast 582 670 37,000  Level Houston Center
Tue 07:12:48 AM 32.4150 -88.7261 54° Northeast 586 674 37,000  Level Houston Center
Tue 07:13:48 AM 32.4947 -88.5539 61° Northeast 590 679 37,000  Level Houston Center
Tue 07:14:49 AM 32.5692 -88.3933 61° Northeast 594 684 37,000  Level Houston Center
Tue 07:16:03 AM 32.6756 -88.1667 61° Northeast 595 685 37,000  Level Memphis Center
Tue 07:17:03 AM 32.7547 -87.9961 61° Northeast 595 685 37,000  Level Memphis Center
Tue 07:18:04 AM 32.8372 -87.8147 62° Northeast 596 686 37,000  Level Memphis Center
Tue 07:19:04 AM 32.9169 -87.6408 61° Northeast 600 690 37,000  Level Memphis Center
Tue 07:19:53 AM 32.9906 -87.4789 62° Northeast 593 682 37,000  Level Atlanta Center
Tue 07:20:53 AM 33.0597 -87.3228 62° Northeast 584 672 37,000  Level Atlanta Center
Tue 07:21:53 AM 33.1394 -87.1447 62° Northeast 589 678 37,000  Level Atlanta Center
Tue 07:22:53 AM 33.2192 -86.9489 64° Northeast 589 678 37,000  Level Atlanta Center
Tue 07:23:53 AM 33.2719 -86.7444 73° East 622 716 37,000  Level Atlanta Center
Tue 07:24:53 AM 33.2989 -86.5539 80° East 597 687 37,000  Level Atlanta Center
Tue 07:25:53 AM 33.3319 -86.3586 78° East 605 696 37,000  Level Atlanta Center
Tue 07:26:53 AM 33.3647 -86.1606 79° East 611 703 37,000  Level Atlanta Center
Tue 07:27:53 AM 33.3953 -85.9597 80° East 611 703 37,000  Level Atlanta Center
Tue 07:28:53 AM 33.4269 -85.7861 78° East 604 695 37,000  Level Atlanta Center
Tue 07:29:53 AM 33.4547 -85.5875 80° East 595 685 37,000  Level Atlanta Center
Tue 07:30:53 AM 33.4883 -85.3889 78° East 600 690 37,000  Level Atlanta Center
Tue 07:31:53 AM 33.5197 -85.1700 80° East 600 690 37,000  Level Atlanta Center
Tue 07:32:53 AM 33.5508 -84.9711 79° East 606 697 37,000  Level Atlanta Center
Tue 07:33:53 AM 33.5792 -84.7719 80° East 606 697 37,000  Level Atlanta Center
Tue 07:34:53 AM 33.6072 -84.5900 79° East 600 690 37,000  Level Atlanta Center
Tue 07:35:53 AM 33.6436 -84.3756 78° East 600 690 37,000 -450 Level Atlanta Center
Tue 07:36:53 AM 33.6981 -84.1761 72° East 601 692 36,100 -950 Descending Atlanta Center
Tue 07:37:53 AM 33.7544 -83.9864 70° East 621 715 35,100 -550 Descending Atlanta Center
Tue 07:38:53 AM 33.8064 -83.7939 72° East 605 696 35,000 -150 Descending Atlanta Center
Tue 07:39:53 AM 33.8581 -83.6086 71° East 594 684 34,800 -850 Descending Atlanta Center
Tue 07:40:53 AM 33.9136 -83.4156 71° East 599 689 33,300 -1,450 Descending Atlanta Center
Tue 07:41:53 AM 33.9628 -83.2322 72° East 593 682 31,900 -1,450 Descending Atlanta Center
Tue 07:42:53 AM 34.0114 -83.0539 72° East 575 662 30,400 -1,450 Descending Atlanta Center
Tue 07:43:53 AM 34.0600 -82.8778 72° East 562 647 29,000 -1,500 Descending Atlanta Center
Tue 07:44:53 AM 34.1064 -82.7042 72° East 557 641 27,400 -1,500 Descending Atlanta Center
Tue 07:45:53 AM 34.1525 -82.5378 71° East 539 620 26,000 -1,650 Descending Atlanta Center
Tue 07:46:53 AM 34.1942 -82.3711 73° East 526 605 24,100 -1,950 Descending Atlanta Center
Tue 07:47:53 AM 34.2356 -82.2122 72° East 507 583 22,100 -1,950 Descending Atlanta Center
Tue 07:48:53 AM 34.3108 -82.0772 56° Northeast 480 552 20,200 -1,950 Descending Atlanta Center
Tue 07:49:53 AM 34.4008 -81.9644 46° Northeast 471 542 18,200 -1,850 Descending Atlanta Center
Tue 07:50:53 AM 34.4867 -81.8589 45° Northeast 453 521 16,500 -1,950 Descending Atlanta Center
Tue 07:51:53 AM 34.5639 -81.7561 48° Northeast 427 491 14,300 -2,127 Descending Atlanta Center
Tue 07:52:43 AM 34.6314 -81.6783 43° Northeast 406 467 12,600 -2,100 Descending Atlanta Center
Tue 07:52:53 AM 34.6436 -81.6553 57° Northeast 409 471 12,200 -1,433 Descending Atlanta Center
Tue 07:53:50 AM 34.7169 -81.5675 45° Northeast 388 447 11,000 -1,300 Descending Atlanta Center
Tue 07:53:53 AM 34.7128 -81.5750 236° Southwest 396 456 10,900  Descending Atlanta Center
Tue 07:54:57 AM 34.7881 -81.4742 48° Northeast 339 390 11,000 -500 Climbing Atlanta Center
Tue 07:55:53 AM 34.8344 -81.3969 54° Northeast 343 395 9,900 -1,279 Descending Atlanta Center
Tue 07:55:58 AM 34.8400 -81.3739 74° East 331 381 9,700 -1,100 Descending Atlanta Center
Tue 07:56:53 AM 34.8675 -81.2944 67° East 325 374 8,800 -1,161 Descending Atlanta Center
Tue 07:57:00 AM 34.8756 -81.2739 64° Northeast 312 359 8,500 -1,400 Descending Atlanta Center
Tue 07:57:53 AM 34.9008 -81.1997 67° East 311 358 7,400 -1,377 Descending Atlanta Center
Tue 07:58:01 AM 34.9108 -81.1792 59° Northeast 302 348 7,100 -600 Descending Atlanta Center
Tue 07:58:53 AM 34.9406 -81.1097 62° Northeast 300 345 6,800 -689 Descending Atlanta Center
Tue 07:59:02 AM 34.9483 -81.0892 65° Northeast 299 344 6,400 -1,400 Descending Atlanta Center
Tue 07:59:53 AM 34.9758 -81.0197 64° Northeast 300 345 5,400 -1,309 Descending Atlanta Center
Tue 07:59:57 AM 34.9797 -81.0094 65° Northeast 292 336 5,200 -200 Descending Atlanta Center
Tue 08:00:53 AM 35.0131 -80.9219 65° Northeast 300 345 5,200 -581 Level Atlanta Center
Tue 08:00:59 AM 35.0456 -80.9664 312° West 237 273 4,600 -1,233 Descending Atlanta Center
Tue 08:02:06 AM 35.1017 -80.9594 North 158 182 3,700 -1,209 Descending Atlanta Center
Tue 08:03:13 AM 35.1519 -80.9650 355° North 147 169 1,900 -1,219 Descending Atlanta Center
Tue 08:04:14 AM 35.1875 -80.9664 358° North 130 150 1,100 -787 Descending Atlanta Center

Login

Don't have an account? Register now (free) for customized features, flight alerts, and more!